createdAt,value
2022-08-28T00:01:26.237Z,1.88
2022-08-28T00:03:52.836Z,2.65
2022-08-28T00:06:19.317Z,2.40
2022-08-28T00:08:46.558Z,2.20
2022-08-28T00:11:12.980Z,1.88
2022-08-28T00:13:39.334Z,2.40
2022-08-28T00:16:06.217Z,2.17
2022-08-28T00:18:32.722Z,2.70
2022-08-28T00:20:59.469Z,2.97
2022-08-28T00:23:26.274Z,2.72
2022-08-28T00:26:06.660Z,2.03
2022-08-28T00:28:33.137Z,2.30
2022-08-28T00:30:59.884Z,2.10
2022-08-28T00:33:31.055Z,2.30
2022-08-28T00:35:57.832Z,2.17
2022-08-28T00:38:25.687Z,2.20
2022-08-28T00:40:53.320Z,1.80
2022-08-28T00:43:27.076Z,2.25
2022-08-28T00:45:53.419Z,1.95
2022-08-28T00:48:19.751Z,2.15
2022-08-28T00:51:04.764Z,2.20
2022-08-28T00:53:32.925Z,2.08
2022-08-28T00:56:01.463Z,1.85
2022-08-28T00:58:30.547Z,2.70
2022-08-28T01:00:56.985Z,2.30
2022-08-28T01:03:25.079Z,1.85
2022-08-28T01:05:53.455Z,1.85
2022-08-28T01:08:20.018Z,2.17
2022-08-28T01:10:49.322Z,1.45
2022-08-28T01:13:16.265Z,2.40
2022-08-28T01:15:43.271Z,2.50
2022-08-28T01:18:10.994Z,2.30
2022-08-28T01:20:42.545Z,2.88
2022-08-28T01:23:27.722Z,2.03
2022-08-28T01:25:54.160Z,1.70
2022-08-28T01:28:20.802Z,1.60
2022-08-28T01:30:47.886Z,2.78
2022-08-28T01:33:17.275Z,1.67
2022-08-28T01:35:47.556Z,2.30
2022-08-28T01:38:20.119Z,2.08
2022-08-28T01:40:53.641Z,1.98
2022-08-28T01:43:22.066Z,1.30
2022-08-28T01:45:52.917Z,1.95
2022-08-28T01:48:20.632Z,1.80
2022-08-28T01:50:47.639Z,1.50
2022-08-28T01:53:15.619Z,1.88
2022-08-28T01:55:42.627Z,2.00
2022-08-28T01:58:09.889Z,1.60
2022-08-28T02:00:36.998Z,1.50
2022-08-28T02:03:03.500Z,1.60
2022-08-28T02:05:31.440Z,1.40
2022-08-28T02:07:58.193Z,1.85
2022-08-28T02:10:25.599Z,1.60
2022-08-28T02:12:55.353Z,1.30
2022-08-28T02:15:26.170Z,1.90
2022-08-28T02:17:52.643Z,1.40
2022-08-28T02:20:19.472Z,1.60
2022-08-28T02:22:45.855Z,1.55
2022-08-28T02:25:13.839Z,1.70
2022-08-28T02:27:40.889Z,1.35
2022-08-28T02:30:08.849Z,1.08
2022-08-28T02:32:35.463Z,1.13
2022-08-28T02:35:02.057Z,1.10
2022-08-28T02:37:29.041Z,1.67
2022-08-28T02:39:57.470Z,1.63
2022-08-28T02:42:24.351Z,1.20
2022-08-28T02:44:50.680Z,1.50
2022-08-28T02:47:17.038Z,1.67
2022-08-28T02:49:44.341Z,1.33
2022-08-28T02:52:10.936Z,1.35
2022-08-28T02:54:40.345Z,1.35
2022-08-28T02:57:08.219Z,1.20
2022-08-28T02:59:35.146Z,0.88
2022-08-28T03:02:04.049Z,1.55
2022-08-28T03:04:33.636Z,1.80
2022-08-28T03:07:00.079Z,1.63
2022-08-28T03:09:26.540Z,1.40
2022-08-28T03:11:53.937Z,1.80
2022-08-28T03:14:20.998Z,1.50
2022-08-28T03:16:47.717Z,1.20
2022-08-28T03:19:14.184Z,1.42
2022-08-28T03:21:40.601Z,1.38
2022-08-28T03:24:07.295Z,1.67
2022-08-28T03:26:33.667Z,1.33
2022-08-28T03:29:02.064Z,1.38
2022-08-28T03:31:29.085Z,1.13
2022-08-28T03:33:57.238Z,1.23
2022-08-28T03:36:25.089Z,1.58
2022-08-28T03:38:52.462Z,2.03
2022-08-28T03:41:19.797Z,1.23
2022-08-28T03:43:46.129Z,1.35
2022-08-28T03:46:17.529Z,1.40
2022-08-28T03:48:44.964Z,1.40
2022-08-28T03:51:16.007Z,0.60
2022-08-28T03:53:44.242Z,1.30
2022-08-28T03:56:12.580Z,1.38
2022-08-28T03:58:39.619Z,1.35
2022-08-28T04:01:06.350Z,1.30
2022-08-28T04:03:32.929Z,1.60
2022-08-28T04:05:59.319Z,1.50
2022-08-28T04:08:25.736Z,1.35
2022-08-28T04:10:52.294Z,1.38
2022-08-28T04:13:20.228Z,1.30
2022-08-28T04:15:55.540Z,1.25
2022-08-28T04:18:21.956Z,2.10
2022-08-28T04:20:57.858Z,1.05
2022-08-28T04:23:24.281Z,1.77
2022-08-28T04:25:50.622Z,1.45
2022-08-28T04:28:17.196Z,1.10
2022-08-28T04:30:43.625Z,1.80
2022-08-28T04:33:10.867Z,1.40
2022-08-28T04:35:37.208Z,1.52
2022-08-28T04:38:05.566Z,1.17
2022-08-28T04:40:32.217Z,1.20
2022-08-28T04:42:58.596Z,1.73
2022-08-28T04:45:25.034Z,1.60
2022-08-28T04:47:51.423Z,1.42
2022-08-28T04:50:17.815Z,1.45
2022-08-28T04:52:44.285Z,1.48
2022-08-28T04:55:10.898Z,1.35
2022-08-28T04:57:37.236Z,1.20
2022-08-28T05:00:05.785Z,1.08
2022-08-28T05:02:32.260Z,1.20
2022-08-28T05:04:58.868Z,1.58
2022-08-28T05:07:25.532Z,1.63
2022-08-28T05:09:54.781Z,1.30
2022-08-28T05:12:22.153Z,1.38
2022-08-28T05:14:49.450Z,1.60
2022-08-28T05:17:15.815Z,1.35
2022-08-28T05:19:42.505Z,1.80
2022-08-28T05:22:11.804Z,1.52
2022-08-28T05:24:38.430Z,1.17
2022-08-28T05:27:04.923Z,1.50
2022-08-28T05:29:31.473Z,1.35
2022-08-28T05:31:57.849Z,1.25
2022-08-28T05:34:24.332Z,1.77
2022-08-28T05:36:50.684Z,1.98
2022-08-28T05:39:17.256Z,1.80
2022-08-28T05:41:44.877Z,2.22
2022-08-28T05:44:12.385Z,2.28
2022-08-28T05:46:40.429Z,2.50
2022-08-28T05:49:09.982Z,1.60
2022-08-28T05:51:37.113Z,1.67
2022-08-28T05:54:03.807Z,1.48
2022-08-28T05:56:31.220Z,1.92
2022-08-28T05:58:59.116Z,2.08
2022-08-28T06:01:28.630Z,1.70
2022-08-28T06:03:57.358Z,1.52
2022-08-28T06:06:24.616Z,1.23
2022-08-28T06:08:58.560Z,1.40
2022-08-28T06:11:26.137Z,1.48
2022-08-28T06:13:53.266Z,1.42
2022-08-28T06:16:19.960Z,1.20
2022-08-28T06:18:46.910Z,1.15
2022-08-28T06:21:13.254Z,0.90
2022-08-28T06:23:41.044Z,1.50
2022-08-28T06:26:07.480Z,1.20
2022-08-28T06:28:34.213Z,1.00
2022-08-28T06:31:23.784Z,1.23
2022-08-28T06:33:48.675Z,1.60
2022-08-28T06:36:15.033Z,1.05
2022-08-28T06:38:46.357Z,1.02
2022-08-28T06:41:13.272Z,1.63
2022-08-28T06:43:41.777Z,1.17
2022-08-28T06:46:08.321Z,1.38
2022-08-28T06:48:34.776Z,1.13
2022-08-28T06:51:01.198Z,1.10
2022-08-28T06:53:29.324Z,0.93
2022-08-28T06:55:57.440Z,0.90
2022-08-28T06:58:24.487Z,0.95
2022-08-28T07:00:56.879Z,0.82
2022-08-28T07:03:27.513Z,1.00
2022-08-28T07:05:58.112Z,1.15
2022-08-28T07:08:28.020Z,1.05
2022-08-28T07:10:54.526Z,1.10
2022-08-28T07:13:21.693Z,1.58
2022-08-28T07:15:48.535Z,1.50
2022-08-28T07:18:15.236Z,1.15
2022-08-28T07:20:41.590Z,1.08
2022-08-28T07:23:07.954Z,0.77
2022-08-28T07:25:34.368Z,1.30
2022-08-28T07:28:00.847Z,1.20
2022-08-28T07:30:27.200Z,1.40
2022-08-28T07:32:53.534Z,0.70
2022-08-28T07:35:20.950Z,1.15
2022-08-28T07:37:47.535Z,1.00
2022-08-28T07:40:14.038Z,1.00
2022-08-28T07:42:58.879Z,1.42
2022-08-28T07:45:25.696Z,1.17
2022-08-28T07:47:52.130Z,1.42
2022-08-28T07:50:18.703Z,1.38
2022-08-28T07:52:45.040Z,1.63
2022-08-28T07:55:11.435Z,1.50
2022-08-28T07:57:37.789Z,1.50
2022-08-28T08:00:05.006Z,0.70
2022-08-28T08:02:31.344Z,0.73
2022-08-28T08:04:57.694Z,1.20
2022-08-28T08:07:24.089Z,1.40
2022-08-28T08:09:50.517Z,1.33
2022-08-28T08:12:17.154Z,1.02
2022-08-28T08:14:43.860Z,1.00
2022-08-28T08:17:10.776Z,1.17
2022-08-28T08:19:37.148Z,1.17
2022-08-28T08:22:03.509Z,0.82
2022-08-28T08:24:30.427Z,1.15
2022-08-28T08:27:00.818Z,1.02
2022-08-28T08:29:29.049Z,1.20
2022-08-28T08:32:04.823Z,1.17
2022-08-28T08:34:32.269Z,1.13
2022-08-28T08:36:58.710Z,0.85
2022-08-28T08:39:25.169Z,1.23
2022-08-28T08:41:54.619Z,1.02
2022-08-28T08:44:24.478Z,1.33
2022-08-28T08:47:05.821Z,1.20
2022-08-28T08:49:36.712Z,1.00
2022-08-28T08:52:12.429Z,1.13
2022-08-28T08:54:50.049Z,1.30
2022-08-28T08:57:16.465Z,0.90
2022-08-28T08:59:42.829Z,1.38
2022-08-28T09:02:14.757Z,0.90
2022-08-28T09:04:51.344Z,1.00
2022-08-28T09:07:26.499Z,1.00
2022-08-28T09:09:54.394Z,1.00
2022-08-28T09:12:30.783Z,0.77
2022-08-28T09:15:12.674Z,1.13
2022-08-28T09:17:42.499Z,1.13
2022-08-28T09:20:10.847Z,1.10
2022-08-28T09:22:37.953Z,1.10
2022-08-28T09:25:05.762Z,1.00
2022-08-28T09:27:37.911Z,0.82
2022-08-28T09:30:08.540Z,1.13
2022-08-28T09:32:38.717Z,1.00
2022-08-28T09:35:07.582Z,0.93
2022-08-28T09:37:34.881Z,1.60
2022-08-28T09:40:19.960Z,1.10
2022-08-28T09:43:23.829Z,0.90
2022-08-28T09:46:19.849Z,0.82
2022-08-28T09:48:47.866Z,1.02
2022-08-28T09:51:27.993Z,1.15
2022-08-28T09:53:57.090Z,0.93
2022-08-28T09:56:29.164Z,0.95
2022-08-28T09:59:12.781Z,1.17
2022-08-28T10:01:44.844Z,0.80
2022-08-28T10:04:11.759Z,0.80
2022-08-28T10:06:38.256Z,0.82
2022-08-28T10:09:10.537Z,0.95
2022-08-28T10:11:57.181Z,0.90
2022-08-28T10:14:42.526Z,1.33
2022-08-28T10:17:27.790Z,0.95
2022-08-28T10:19:54.172Z,1.42
2022-08-28T10:22:36.845Z,0.80
2022-08-28T10:25:21.985Z,1.13
2022-08-28T10:27:55.759Z,1.20
2022-08-28T10:30:23.821Z,0.90
2022-08-28T10:32:59.969Z,0.80
2022-08-28T10:35:32.200Z,1.70
2022-08-28T10:38:14.080Z,1.20
2022-08-28T10:40:44.585Z,1.35
2022-08-28T10:43:13.829Z,2.80
2022-08-28T10:45:41.048Z,2.05
2022-08-28T10:48:10.882Z,1.27
2022-08-28T10:50:52.137Z,1.70
2022-08-28T10:53:22.898Z,1.70
2022-08-28T10:55:49.211Z,2.38
2022-08-28T10:58:24.613Z,2.03
2022-08-28T11:00:53.676Z,2.05
2022-08-28T11:03:33.989Z,1.80
2022-08-28T11:06:08.326Z,1.50
2022-08-28T11:08:36.069Z,2.40
2022-08-28T11:11:03.724Z,1.55
2022-08-28T11:13:49.076Z,0.77
2022-08-28T11:16:35.654Z,0.88
2022-08-28T11:19:20.844Z,0.70
2022-08-28T11:21:47.173Z,2.83
2022-08-28T11:24:32.323Z,1.42
2022-08-28T11:27:07.359Z,0.93
2022-08-28T11:29:52.819Z,1.10
2022-08-28T11:32:34.492Z,1.10
2022-08-28T11:35:02.448Z,1.23
2022-08-28T11:37:42.774Z,1.17
2022-08-28T11:40:28.109Z,1.17
2022-08-28T11:43:16.439Z,0.85
2022-08-28T11:45:43.129Z,1.10
2022-08-28T11:48:28.573Z,1.08
2022-08-28T11:50:56.800Z,0.93
2022-08-28T11:53:37.391Z,0.90
2022-08-28T11:56:30.436Z,1.02
2022-08-28T11:59:07.965Z,1.15
2022-08-28T12:01:36.359Z,1.05
2022-08-28T12:04:08.650Z,1.10
2022-08-28T12:06:47.335Z,1.27
2022-08-28T12:09:25.899Z,1.00
2022-08-28T12:11:57.019Z,0.98
2022-08-28T12:14:26.221Z,1.42
2022-08-28T12:16:58.745Z,0.90
2022-08-28T12:19:56.098Z,0.90
2022-08-28T12:22:24.768Z,0.80
2022-08-28T12:24:56.982Z,1.15
2022-08-28T12:27:24.439Z,0.90
2022-08-28T12:29:55.300Z,0.70
2022-08-28T12:32:40.202Z,0.80
2022-08-28T12:35:10.001Z,0.70
2022-08-28T12:37:52.374Z,1.42
2022-08-28T12:40:27.605Z,1.45
2022-08-28T12:42:55.379Z,1.20
2022-08-28T12:45:26.792Z,0.80
2022-08-28T12:47:55.215Z,0.65
2022-08-28T12:50:22.077Z,1.33
2022-08-28T12:52:49.827Z,1.10
2022-08-28T12:55:17.947Z,1.33
2022-08-28T12:57:46.289Z,0.90
2022-08-28T13:00:17.008Z,0.70
2022-08-28T13:02:46.468Z,0.68
2022-08-28T13:05:26.092Z,1.00
2022-08-28T13:07:54.145Z,1.10
2022-08-28T13:10:22.361Z,0.75
2022-08-28T13:13:00.769Z,0.77
2022-08-28T13:15:45.062Z,0.60
2022-08-28T13:18:33.136Z,1.00
2022-08-28T13:21:12.134Z,1.10
2022-08-28T13:23:38.840Z,0.88
2022-08-28T13:26:05.934Z,0.90
2022-08-28T13:28:36.970Z,1.17
2022-08-28T13:31:03.374Z,0.90
2022-08-28T13:33:29.877Z,0.80
2022-08-28T13:35:57.302Z,0.52
2022-08-28T13:38:26.460Z,0.90
2022-08-28T13:40:59.452Z,0.82
2022-08-28T13:43:27.740Z,0.60
2022-08-28T13:45:54.204Z,0.88
2022-08-28T13:48:25.207Z,1.02
2022-08-28T13:50:54.585Z,0.70
2022-08-28T13:53:21.855Z,1.00
2022-08-28T13:55:49.121Z,1.13
2022-08-28T13:58:15.895Z,1.02
2022-08-28T14:00:44.534Z,1.10
2022-08-28T14:03:29.716Z,0.98
2022-08-28T14:05:56.325Z,0.70
2022-08-28T14:08:22.690Z,0.98
2022-08-28T14:10:49.141Z,0.95
2022-08-28T14:13:15.566Z,1.40
2022-08-28T14:15:41.934Z,1.10
2022-08-28T14:18:08.418Z,1.08
2022-08-28T14:20:34.806Z,0.88
2022-08-28T14:23:01.208Z,1.17
2022-08-28T14:25:27.598Z,0.90
2022-08-28T14:27:55.881Z,1.00
2022-08-28T14:30:22.708Z,0.93
2022-08-28T14:32:49.085Z,0.90
2022-08-28T14:35:15.528Z,0.90
2022-08-28T14:37:41.988Z,1.10
2022-08-28T14:40:08.808Z,0.90
2022-08-28T14:42:35.204Z,1.25
2022-08-28T14:45:01.749Z,1.10
2022-08-28T14:47:28.330Z,0.85
2022-08-28T14:49:54.899Z,0.98
2022-08-28T14:52:22.417Z,1.10
2022-08-28T14:54:48.841Z,0.90
2022-08-28T14:57:15.228Z,1.10
2022-08-28T14:59:41.650Z,0.70
2022-08-28T15:02:08.090Z,1.00
2022-08-28T15:04:36.404Z,0.70
2022-08-28T15:07:06.194Z,1.00
2022-08-28T15:09:34.585Z,0.80
2022-08-28T15:12:00.969Z,0.70
2022-08-28T15:14:27.964Z,0.75
2022-08-28T15:16:54.442Z,1.02
2022-08-28T15:19:23.288Z,2.00
2022-08-28T15:21:51.255Z,1.20
2022-08-28T15:24:19.421Z,0.90
2022-08-28T15:26:46.809Z,1.05
2022-08-28T15:29:13.655Z,0.93
2022-08-28T15:31:42.265Z,1.00
2022-08-28T15:34:13.198Z,0.88
2022-08-28T15:36:40.336Z,0.98
2022-08-28T15:39:25.789Z,1.23
2022-08-28T15:41:52.865Z,0.98
2022-08-28T15:44:19.417Z,1.00
2022-08-28T15:46:53.255Z,0.80
2022-08-28T15:49:20.729Z,0.90
2022-08-28T15:51:50.651Z,0.85
2022-08-28T15:54:17.337Z,0.73
2022-08-28T15:56:43.903Z,0.80
2022-08-28T15:59:11.128Z,0.95
2022-08-28T16:01:37.580Z,0.98
2022-08-28T16:04:04.932Z,0.70
2022-08-28T16:06:31.363Z,0.90
2022-08-28T16:08:58.585Z,0.80
2022-08-28T16:11:25.675Z,1.02
2022-08-28T16:13:52.612Z,1.13
2022-08-28T16:16:19.017Z,0.90
2022-08-28T16:18:45.436Z,0.75
2022-08-28T16:21:12.716Z,0.88
2022-08-28T16:23:39.082Z,0.95
2022-08-28T16:26:06.478Z,0.70
2022-08-28T16:28:33.417Z,0.85
2022-08-28T16:31:03.221Z,0.98
2022-08-28T16:33:34.000Z,0.73
2022-08-28T16:36:01.839Z,0.80
2022-08-28T16:38:28.367Z,0.90
2022-08-28T16:40:54.808Z,0.70
2022-08-28T16:43:21.168Z,0.70
2022-08-28T16:45:47.640Z,0.95
2022-08-28T16:48:15.165Z,0.70
2022-08-28T16:50:42.736Z,0.77
2022-08-28T16:53:09.921Z,0.80
2022-08-28T16:55:37.198Z,0.73
2022-08-28T16:58:04.282Z,0.77
2022-08-28T17:00:30.891Z,1.10
2022-08-28T17:02:57.396Z,0.95
2022-08-28T17:05:24.809Z,0.85
2022-08-28T17:07:51.896Z,0.80
2022-08-28T17:10:20.116Z,0.90
2022-08-28T17:12:46.481Z,1.02
2022-08-28T17:15:13.200Z,0.70
2022-08-28T17:17:40.542Z,1.17
2022-08-28T17:20:07.901Z,0.63
2022-08-28T17:22:34.716Z,1.00
2022-08-28T17:25:13.664Z,0.80
2022-08-28T17:27:40.731Z,1.00
2022-08-28T17:30:08.181Z,0.90
2022-08-28T17:32:34.550Z,0.90
2022-08-28T17:35:00.911Z,1.00
2022-08-28T17:37:27.533Z,0.65
2022-08-28T17:39:54.172Z,0.77
2022-08-28T17:42:20.554Z,0.70
2022-08-28T17:44:46.968Z,0.80
2022-08-28T17:47:13.354Z,0.82
2022-08-28T17:49:40.314Z,0.70
2022-08-28T17:52:06.707Z,0.60
2022-08-28T17:54:33.127Z,1.75
2022-08-28T17:56:59.506Z,0.70
2022-08-28T17:59:27.520Z,0.75
2022-08-28T18:01:54.318Z,0.60
2022-08-28T18:04:24.223Z,1.10
2022-08-28T18:06:54.703Z,0.85
2022-08-28T18:09:22.063Z,0.68
2022-08-28T18:11:48.490Z,0.90
2022-08-28T18:14:14.872Z,0.70
2022-08-28T18:16:41.416Z,0.82
2022-08-28T18:19:10.271Z,0.70
2022-08-28T18:21:37.497Z,0.60
2022-08-28T18:24:04.719Z,0.70
2022-08-28T18:26:31.216Z,0.60
2022-08-28T18:28:57.583Z,0.75
2022-08-28T18:31:23.981Z,1.02
2022-08-28T18:33:50.754Z,0.90
2022-08-28T18:36:17.493Z,0.75
2022-08-28T18:38:43.959Z,0.70
2022-08-28T18:41:12.030Z,0.73
2022-08-28T18:43:38.431Z,0.88
2022-08-28T18:46:05.475Z,0.50
2022-08-28T18:48:32.380Z,0.65
2022-08-28T18:50:58.792Z,0.77
2022-08-28T18:53:25.423Z,0.73
2022-08-28T18:55:52.819Z,0.88
2022-08-28T18:58:20.347Z,1.00
2022-08-28T19:00:46.742Z,0.80
2022-08-28T19:03:14.645Z,0.70
2022-08-28T19:05:41.376Z,1.02
2022-08-28T19:08:07.894Z,0.70
2022-08-28T19:10:35.179Z,0.90
2022-08-28T19:13:01.815Z,1.00
2022-08-28T19:15:28.615Z,1.25
2022-08-28T19:17:55.142Z,0.90
2022-08-28T19:20:21.844Z,0.60
2022-08-28T19:22:48.755Z,0.80
2022-08-28T19:25:27.759Z,0.82
2022-08-28T19:27:58.968Z,0.63
2022-08-28T19:30:26.296Z,0.60
2022-08-28T19:32:52.724Z,0.50
2022-08-28T19:35:19.421Z,0.90
2022-08-28T19:37:45.978Z,1.02
2022-08-28T19:40:12.958Z,0.77
2022-08-28T19:42:39.603Z,0.80
2022-08-28T19:45:07.228Z,0.60
2022-08-28T19:47:35.411Z,0.88
2022-08-28T19:50:02.793Z,0.73
2022-08-28T19:52:29.260Z,1.13
2022-08-28T19:54:55.635Z,0.95
2022-08-28T19:57:22.394Z,0.47
2022-08-28T19:59:48.834Z,0.85
2022-08-28T20:02:15.347Z,0.93
2022-08-28T20:04:41.797Z,0.88
2022-08-28T20:07:08.199Z,0.73
2022-08-28T20:09:34.904Z,0.90
2022-08-28T20:12:01.417Z,0.90
2022-08-28T20:14:27.917Z,0.63
2022-08-28T20:16:54.409Z,0.90
2022-08-28T20:19:22.576Z,0.70
2022-08-28T20:21:50.008Z,0.65
2022-08-28T20:24:21.804Z,1.48
2022-08-28T20:26:48.633Z,0.77
2022-08-28T20:29:15.758Z,1.15
2022-08-28T20:31:43.857Z,0.80
2022-08-28T20:34:10.697Z,1.10
2022-08-28T20:36:37.073Z,0.70
2022-08-28T20:39:07.041Z,0.90
2022-08-28T20:41:34.018Z,0.82
2022-08-28T20:44:06.216Z,0.80
2022-08-28T20:46:39.836Z,1.10
2022-08-28T20:49:08.268Z,0.98
2022-08-28T20:51:52.916Z,0.88
2022-08-28T20:54:21.427Z,1.00
2022-08-28T20:56:48.492Z,0.90
2022-08-28T20:59:14.928Z,1.15
2022-08-28T21:01:41.698Z,0.88
2022-08-28T21:04:08.197Z,0.85
2022-08-28T21:06:34.629Z,1.25
2022-08-28T21:09:00.974Z,1.10
2022-08-28T21:11:27.773Z,1.60
2022-08-28T21:13:54.676Z,1.02
2022-08-28T21:16:21.655Z,0.63
2022-08-28T21:19:13.945Z,0.80
2022-08-28T21:21:35.071Z,1.05
2022-08-28T21:24:02.374Z,1.00
2022-08-28T21:26:28.989Z,1.45
2022-08-28T21:28:55.355Z,0.75
2022-08-28T21:31:21.787Z,0.80
2022-08-28T21:33:48.366Z,1.10
2022-08-28T21:36:15.819Z,1.00
2022-08-28T21:38:42.138Z,0.82
2022-08-28T21:41:12.372Z,1.02
2022-08-28T21:43:39.619Z,0.80
2022-08-28T21:46:06.880Z,1.10
2022-08-28T21:48:35.341Z,0.95
2022-08-28T21:51:02.239Z,0.85
2022-08-28T21:53:31.401Z,0.57
2022-08-28T21:55:57.748Z,0.88
2022-08-28T21:58:24.152Z,1.10
2022-08-28T22:00:51.835Z,0.70
2022-08-28T22:03:18.721Z,0.90
2022-08-28T22:05:45.716Z,1.00
2022-08-28T22:08:12.964Z,0.75
2022-08-28T22:10:40.639Z,1.40
2022-08-28T22:13:07.351Z,1.02
2022-08-28T22:15:34.032Z,0.70
2022-08-28T22:18:00.599Z,0.85
2022-08-28T22:20:27.532Z,0.70
2022-08-28T22:23:12.288Z,1.30
2022-08-28T22:25:40.792Z,1.13
2022-08-28T22:28:07.819Z,1.08
2022-08-28T22:30:34.331Z,1.30
2022-08-28T22:33:01.421Z,1.75
2022-08-28T22:35:28.167Z,1.10
2022-08-28T22:37:55.022Z,1.30
2022-08-28T22:40:22.027Z,1.98
2022-08-28T22:42:50.448Z,2.30
2022-08-28T22:45:20.502Z,2.38
2022-08-28T22:47:49.585Z,2.10
2022-08-28T22:50:16.296Z,2.65
2022-08-28T22:52:45.517Z,2.50
2022-08-28T22:55:12.660Z,2.45
2022-08-28T22:57:39.072Z,3.10
2022-08-28T23:00:07.120Z,3.15
2022-08-28T23:02:33.694Z,3.10
2022-08-28T23:05:00.189Z,2.38
2022-08-28T23:07:26.609Z,3.10
2022-08-28T23:09:53.153Z,3.13
2022-08-28T23:12:19.532Z,3.42
2022-08-28T23:14:48.598Z,3.30
2022-08-28T23:17:15.374Z,3.15
2022-08-28T23:19:43.653Z,2.08
2022-08-28T23:22:12.692Z,2.53
2022-08-28T23:24:39.373Z,2.33
2022-08-28T23:27:32.510Z,3.40
2022-08-28T23:29:53.442Z,3.20
2022-08-28T23:32:20.119Z,2.50
2022-08-28T23:34:46.533Z,3.60
2022-08-28T23:37:13.004Z,2.72
2022-08-28T23:39:39.408Z,2.15
2022-08-28T23:42:05.808Z,4.15
2022-08-28T23:44:32.174Z,3.05
2022-08-28T23:46:58.851Z,2.75
2022-08-28T23:49:27.050Z,2.97
2022-08-28T23:51:53.603Z,3.63
2022-08-28T23:54:20.059Z,2.35
2022-08-28T23:56:46.404Z,3.28
2022-08-28T23:59:12.989Z,2.47
